sensor_id;sensor_type;location;lat;lon;timestamp;temperature;humidity
19060;DHT22;9663;48.996;8.334;2023-01-01T00:01:25;18.30;56.50
19060;DHT22;9663;48.996;8.334;2023-01-01T00:03:54;17.80;56.30
19060;DHT22;9663;48.996;8.334;2023-01-01T00:06:21;17.90;56.30
19060;DHT22;9663;48.996;8.334;2023-01-01T00:08:48;17.90;56.30
19060;DHT22;9663;48.996;8.334;2023-01-01T00:11:14;17.80;56.30
19060;DHT22;9663;48.996;8.334;2023-01-01T00:13:41;17.80;56.30
19060;DHT22;9663;48.996;8.334;2023-01-01T00:16:13;18.70;56.70
19060;DHT22;9663;48.996;8.334;2023-01-01T00:18:40;17.80;56.20
19060;DHT22;9663;48.996;8.334;2023-01-01T00:21:15;17.90;56.30
19060;DHT22;9663;48.996;8.334;2023-01-01T00:23:42;18.70;56.70
19060;DHT22;9663;48.996;8.334;2023-01-01T00:26:09;17.80;56.30
19060;DHT22;9663;48.996;8.334;2023-01-01T00:28:35;17.70;56.20
19060;DHT22;9663;48.996;8.334;2023-01-01T00:31:06;18.50;56.70
19060;DHT22;9663;48.996;8.334;2023-01-01T00:33:33;17.80;56.40
19060;DHT22;9663;48.996;8.334;2023-01-01T00:36:08;17.50;56.20
19060;DHT22;9663;48.996;8.334;2023-01-01T00:38:35;17.60;56.30
19060;DHT22;9663;48.996;8.334;2023-01-01T00:41:02;17.60;56.30
19060;DHT22;9663;48.996;8.334;2023-01-01T00:43:28;17.50;56.20
19060;DHT22;9663;48.996;8.334;2023-01-01T00:45:54;17.40;56.30
19060;DHT22;9663;48.996;8.334;2023-01-01T00:48:20;17.40;56.40
19060;DHT22;9663;48.996;8.334;2023-01-01T00:50:47;17.40;56.50
19060;DHT22;9663;48.996;8.334;2023-01-01T00:53:14;17.20;56.40
19060;DHT22;9663;48.996;8.334;2023-01-01T00:55:40;17.10;56.40
19060;DHT22;9663;48.996;8.334;2023-01-01T00:58:07;18.40;57.10
19060;DHT22;9663;48.996;8.334;2023-01-01T01:00:33;17.10;56.60
19060;DHT22;9663;48.996;8.334;2023-01-01T01:02:59;16.80;56.50
19060;DHT22;9663;48.996;8.334;2023-01-01T01:05:25;18.00;57.10
19060;DHT22;9663;48.996;8.334;2023-01-01T01:07:51;17.10;56.70
19060;DHT22;9663;48.996;8.334;2023-01-01T01:10:17;17.00;56.70
19060;DHT22;9663;48.996;8.334;2023-01-01T01:12:45;17.20;56.80
19060;DHT22;9663;48.996;8.334;2023-01-01T01:15:11;16.60;56.60
19060;DHT22;9663;48.996;8.334;2023-01-01T01:17:37;17.30;57.00
19060;DHT22;9663;48.996;8.334;2023-01-01T01:20:04;16.50;56.70
19060;DHT22;9663;48.996;8.334;2023-01-01T01:22:30;16.60;56.70
19060;DHT22;9663;48.996;8.334;2023-01-01T01:24:56;17.20;57.20
19060;DHT22;9663;48.996;8.334;2023-01-01T01:27:22;17.50;57.40
19060;DHT22;9663;48.996;8.334;2023-01-01T01:29:48;16.50;57.00
19060;DHT22;9663;48.996;8.334;2023-01-01T01:32:14;16.40;57.00
19060;DHT22;9663;48.996;8.334;2023-01-01T01:34:39;17.50;57.60
19060;DHT22;9663;48.996;8.334;2023-01-01T01:37:05;17.00;57.40
19060;DHT22;9663;48.996;8.334;2023-01-01T01:39:31;16.60;57.30
19060;DHT22;9663;48.996;8.334;2023-01-01T01:41:56;16.40;57.80
19060;DHT22;9663;48.996;8.334;2023-01-01T01:44:52;16.40;57.20
19060;DHT22;9663;48.996;8.334;2023-01-01T01:50:31;16.60;57.30
19060;DHT22;9663;48.996;8.334;2023-01-01T01:53:22;16.70;57.50
19060;DHT22;9663;48.996;8.334;2023-01-01T01:55:54;18.20;58.20
19060;DHT22;9663;48.996;8.334;2023-01-01T01:58:23;18.30;58.20
19060;DHT22;9663;48.996;8.334;2023-01-01T02:00:51;16.50;57.30
19060;DHT22;9663;48.996;8.334;2023-01-01T02:03:26;16.60;57.30
19060;DHT22;9663;48.996;8.334;2023-01-01T02:05:57;16.50;57.10
19060;DHT22;9663;48.996;8.334;2023-01-01T02:08:24;16.60;57.20
19060;DHT22;9663;48.996;8.334;2023-01-01T02:10:50;16.60;57.30
19060;DHT22;9663;48.996;8.334;2023-01-01T02:13:16;16.80;57.30
19060;DHT22;9663;48.996;8.334;2023-01-01T02:15:50;16.60;57.20
19060;DHT22;9663;48.996;8.334;2023-01-01T02:18:35;18.20;58.00
19060;DHT22;9663;48.996;8.334;2023-01-01T02:21:13;16.60;57.30
19060;DHT22;9663;48.996;8.334;2023-01-01T02:24:14;16.90;57.60
19060;DHT22;9663;48.996;8.334;2023-01-01T02:29:54;16.30;57.10
19060;DHT22;9663;48.996;8.334;2023-01-01T02:32:43;16.90;57.50
19060;DHT22;9663;48.996;8.334;2023-01-01T02:35:39;16.90;57.40
19060;DHT22;9663;48.996;8.334;2023-01-01T02:38:32;17.00;57.50
19060;DHT22;9663;48.996;8.334;2023-01-01T02:41:13;16.90;57.40
19060;DHT22;9663;48.996;8.334;2023-01-01T02:43:44;16.90;57.40
19060;DHT22;9663;48.996;8.334;2023-01-01T02:46:10;16.70;57.20
19060;DHT22;9663;48.996;8.334;2023-01-01T02:57:50;17.30;57.10
19060;DHT22;9663;48.996;8.334;2023-01-01T03:00:52;19.00;57.90
19060;DHT22;9663;48.996;8.334;2023-01-01T03:03:41;17.20;56.90
19060;DHT22;9663;48.996;8.334;2023-01-01T03:06:28;17.10;56.80
19060;DHT22;9663;48.996;8.334;2023-01-01T03:09:44;17.00;56.70
19060;DHT22;9663;48.996;8.334;2023-01-01T03:12:35;17.10;56.70
19060;DHT22;9663;48.996;8.334;2023-01-01T03:18:03;17.30;56.80
19060;DHT22;9663;48.996;8.334;2023-01-01T03:20:36;17.00;56.70
19060;DHT22;9663;48.996;8.334;2023-01-01T03:23:13;17.70;57.10
19060;DHT22;9663;48.996;8.334;2023-01-01T03:25:53;17.00;56.70
19060;DHT22;9663;48.996;8.334;2023-01-01T03:28:38;17.00;56.70
19060;DHT22;9663;48.996;8.334;2023-01-01T03:31:09;17.30;56.70
19060;DHT22;9663;48.996;8.334;2023-01-01T03:33:40;17.30;56.80
19060;DHT22;9663;48.996;8.334;2023-01-01T03:36:21;17.30;56.70
19060;DHT22;9663;48.996;8.334;2023-01-01T03:38:56;17.40;56.70
19060;DHT22;9663;48.996;8.334;2023-01-01T03:41:37;17.20;56.50
19060;DHT22;9663;48.996;8.334;2023-01-01T03:44:24;17.00;56.40
19060;DHT22;9663;48.996;8.334;2023-01-01T03:46:55;17.30;56.40
19060;DHT22;9663;48.996;8.334;2023-01-01T03:49:22;17.40;56.60
19060;DHT22;9663;48.996;8.334;2023-01-01T03:55:31;17.40;56.20
19060;DHT22;9663;48.996;8.334;2023-01-01T03:58:08;17.70;56.40
19060;DHT22;9663;48.996;8.334;2023-01-01T04:00:54;17.40;56.40
19060;DHT22;9663;48.996;8.334;2023-01-01T04:03:27;17.80;56.50
19060;DHT22;9663;48.996;8.334;2023-01-01T04:05:55;18.00;56.60
19060;DHT22;9663;48.996;8.334;2023-01-01T04:08:21;17.30;56.20
19060;DHT22;9663;48.996;8.334;2023-01-01T04:10:57;17.30;56.20
19060;DHT22;9663;48.996;8.334;2023-01-01T04:13:25;17.50;56.10
19060;DHT22;9663;48.996;8.334;2023-01-01T04:15:51;17.40;56.20
19060;DHT22;9663;48.996;8.334;2023-01-01T04:18:16;17.20;56.00
19060;DHT22;9663;48.996;8.334;2023-01-01T04:20:42;18.50;56.60
19060;DHT22;9663;48.996;8.334;2023-01-01T04:23:07;17.50;56.10
19060;DHT22;9663;48.996;8.334;2023-01-01T04:25:33;17.70;56.20
19060;DHT22;9663;48.996;8.334;2023-01-01T04:27:59;17.70;56.10
19060;DHT22;9663;48.996;8.334;2023-01-01T04:30:28;17.60;56.00
19060;DHT22;9663;48.996;8.334;2023-01-01T04:32:54;17.50;55.90
19060;DHT22;9663;48.996;8.334;2023-01-01T04:35:20;17.90;56.10
19060;DHT22;9663;48.996;8.334;2023-01-01T04:37:46;17.80;56.00
19060;DHT22;9663;48.996;8.334;2023-01-01T04:40:12;17.50;55.90
19060;DHT22;9663;48.996;8.334;2023-01-01T04:42:38;17.40;55.80
19060;DHT22;9663;48.996;8.334;2023-01-01T04:45:05;18.70;56.40
19060;DHT22;9663;48.996;8.334;2023-01-01T04:47:31;17.40;55.70
19060;DHT22;9663;48.996;8.334;2023-01-01T04:49:57;17.30;55.70
19060;DHT22;9663;48.996;8.334;2023-01-01T04:52:26;17.50;55.80
19060;DHT22;9663;48.996;8.334;2023-01-01T04:54:52;17.40;56.10
19060;DHT22;9663;48.996;8.334;2023-01-01T04:57:17;17.50;55.90
19060;DHT22;9663;48.996;8.334;2023-01-01T04:59:43;18.40;56.30
19060;DHT22;9663;48.996;8.334;2023-01-01T05:02:09;17.50;55.70
19060;DHT22;9663;48.996;8.334;2023-01-01T05:04:34;17.40;55.70
19060;DHT22;9663;48.996;8.334;2023-01-01T05:07:00;18.30;56.10
19060;DHT22;9663;48.996;8.334;2023-01-01T05:09:26;17.40;55.70
19060;DHT22;9663;48.996;8.334;2023-01-01T05:11:53;18.80;56.30
19060;DHT22;9663;48.996;8.334;2023-01-01T05:14:20;17.70;55.70
19060;DHT22;9663;48.996;8.334;2023-01-01T05:16:45;17.50;55.60
19060;DHT22;9663;48.996;8.334;2023-01-01T05:19:11;17.40;55.60
19060;DHT22;9663;48.996;8.334;2023-01-01T05:21:39;17.30;55.50
19060;DHT22;9663;48.996;8.334;2023-01-01T05:24:07;17.50;55.70
19060;DHT22;9663;48.996;8.334;2023-01-01T05:26:36;17.30;55.60
19060;DHT22;9663;48.996;8.334;2023-01-01T05:29:04;18.10;56.00
19060;DHT22;9663;48.996;8.334;2023-01-01T05:31:32;17.30;55.70
19060;DHT22;9663;48.996;8.334;2023-01-01T05:34:00;17.20;55.60
19060;DHT22;9663;48.996;8.334;2023-01-01T05:36:29;17.20;55.60
19060;DHT22;9663;48.996;8.334;2023-01-01T05:38:59;17.50;55.70
19060;DHT22;9663;48.996;8.334;2023-01-01T05:41:25;17.30;55.60
19060;DHT22;9663;48.996;8.334;2023-01-01T05:43:51;18.80;56.40
19060;DHT22;9663;48.996;8.334;2023-01-01T05:46:23;17.40;55.80
19060;DHT22;9663;48.996;8.334;2023-01-01T05:48:51;17.30;55.80
19060;DHT22;9663;48.996;8.334;2023-01-01T05:51:22;17.50;55.90
19060;DHT22;9663;48.996;8.334;2023-01-01T05:53:50;17.20;55.70
19060;DHT22;9663;48.996;8.334;2023-01-01T05:56:17;17.00;55.70
19060;DHT22;9663;48.996;8.334;2023-01-01T05:58:44;17.80;56.20
19060;DHT22;9663;48.996;8.334;2023-01-01T06:01:16;17.40;56.00
19060;DHT22;9663;48.996;8.334;2023-01-01T06:03:47;17.00;55.80
19060;DHT22;9663;48.996;8.334;2023-01-01T06:06:16;17.20;55.90
19060;DHT22;9663;48.996;8.334;2023-01-01T06:08:59;16.90;55.80
19060;DHT22;9663;48.996;8.334;2023-01-01T06:11:26;16.90;55.70
19060;DHT22;9663;48.996;8.334;2023-01-01T06:13:54;17.00;55.80
19060;DHT22;9663;48.996;8.334;2023-01-01T06:16:21;16.90;55.80
19060;DHT22;9663;48.996;8.334;2023-01-01T06:18:48;16.90;55.80
19060;DHT22;9663;48.996;8.334;2023-01-01T06:21:16;19.00;56.90
19060;DHT22;9663;48.996;8.334;2023-01-01T06:23:43;16.70;55.90
19060;DHT22;9663;48.996;8.334;2023-01-01T06:26:13;16.40;55.80
19060;DHT22;9663;48.996;8.334;2023-01-01T06:28:44;17.20;56.20
19060;DHT22;9663;48.996;8.334;2023-01-01T06:31:12;16.50;56.00
19060;DHT22;9663;48.996;8.334;2023-01-01T06:33:39;17.40;56.50
19060;DHT22;9663;48.996;8.334;2023-01-01T06:36:08;16.40;56.00
19060;DHT22;9663;48.996;8.334;2023-01-01T06:38:37;16.70;56.20
19060;DHT22;9663;48.996;8.334;2023-01-01T06:41:07;16.60;56.10
19060;DHT22;9663;48.996;8.334;2023-01-01T06:43:37;17.00;56.40
19060;DHT22;9663;48.996;8.334;2023-01-01T06:48:34;16.70;56.00
19060;DHT22;9663;48.996;8.334;2023-01-01T06:51:08;16.50;56.00
19060;DHT22;9663;48.996;8.334;2023-01-01T06:53:36;16.40;56.00
19060;DHT22;9663;48.996;8.334;2023-01-01T06:56:01;16.80;56.20
19060;DHT22;9663;48.996;8.334;2023-01-01T06:58:27;16.60;56.20
19060;DHT22;9663;48.996;8.334;2023-01-01T07:00:54;16.50;56.20
19060;DHT22;9663;48.996;8.334;2023-01-01T07:03:27;16.60;56.20
19060;DHT22;9663;48.996;8.334;2023-01-01T07:05:53;16.40;56.20
19060;DHT22;9663;48.996;8.334;2023-01-01T07:08:18;16.40;56.30
19060;DHT22;9663;48.996;8.334;2023-01-01T07:10:44;16.50;56.40
19060;DHT22;9663;48.996;8.334;2023-01-01T07:13:10;16.40;56.40
19060;DHT22;9663;48.996;8.334;2023-01-01T07:15:35;16.30;56.50
19060;DHT22;9663;48.996;8.334;2023-01-01T07:18:01;16.30;56.40
19060;DHT22;9663;48.996;8.334;2023-01-01T07:20:27;16.30;56.40
19060;DHT22;9663;48.996;8.334;2023-01-01T07:22:53;16.30;56.40
19060;DHT22;9663;48.996;8.334;2023-01-01T07:25:18;15.90;56.20
19060;DHT22;9663;48.996;8.334;2023-01-01T07:27:44;16.10;56.30
19060;DHT22;9663;48.996;8.334;2023-01-01T07:30:10;16.10;56.30
19060;DHT22;9663;48.996;8.334;2023-01-01T07:32:35;16.00;56.40
19060;DHT22;9663;48.996;8.334;2023-01-01T07:35:01;16.20;56.40
19060;DHT22;9663;48.996;8.334;2023-01-01T07:37:27;16.10;56.50
19060;DHT22;9663;48.996;8.334;2023-01-01T07:39:52;16.20;56.60
19060;DHT22;9663;48.996;8.334;2023-01-01T07:42:18;15.90;56.50
19060;DHT22;9663;48.996;8.334;2023-01-01T07:44:43;17.10;57.10
19060;DHT22;9663;48.996;8.334;2023-01-01T07:47:20;15.70;56.50
19060;DHT22;9663;48.996;8.334;2023-01-01T07:49:47;17.40;57.50
19060;DHT22;9663;48.996;8.334;2023-01-01T07:52:12;15.70;56.60
19060;DHT22;9663;48.996;8.334;2023-01-01T07:54:38;15.70;56.60
19060;DHT22;9663;48.996;8.334;2023-01-01T07:57:04;15.30;56.60
19060;DHT22;9663;48.996;8.334;2023-01-01T07:59:29;15.40;56.80
19060;DHT22;9663;48.996;8.334;2023-01-01T08:01:55;15.10;56.80
19060;DHT22;9663;48.996;8.334;2023-01-01T08:04:21;15.60;57.20
19060;DHT22;9663;48.996;8.334;2023-01-01T08:06:47;15.30;57.10
19060;DHT22;9663;48.996;8.334;2023-01-01T08:09:13;15.70;57.30
19060;DHT22;9663;48.996;8.334;2023-01-01T08:11:38;16.10;57.60
19060;DHT22;9663;48.996;8.334;2023-01-01T08:14:04;14.20;56.80
19060;DHT22;9663;48.996;8.334;2023-01-01T08:16:30;16.40;57.90
19060;DHT22;9663;48.996;8.334;2023-01-01T08:18:55;15.40;57.50
19060;DHT22;9663;48.996;8.334;2023-01-01T08:21:21;15.20;57.50
19060;DHT22;9663;48.996;8.334;2023-01-01T08:23:47;14.90;57.40
19060;DHT22;9663;48.996;8.334;2023-01-01T08:26:17;16.50;58.30
19060;DHT22;9663;48.996;8.334;2023-01-01T08:28:50;15.20;57.70
19060;DHT22;9663;48.996;8.334;2023-01-01T08:31:16;15.60;57.80
19060;DHT22;9663;48.996;8.334;2023-01-01T08:33:41;15.10;57.60
19060;DHT22;9663;48.996;8.334;2023-01-01T08:36:09;15.00;57.50
19060;DHT22;9663;48.996;8.334;2023-01-01T08:38:37;15.30;57.70
19060;DHT22;9663;48.996;8.334;2023-01-01T08:41:03;15.30;57.70
19060;DHT22;9663;48.996;8.334;2023-01-01T08:43:29;15.20;57.60
19060;DHT22;9663;48.996;8.334;2023-01-01T08:45:54;15.40;57.70
19060;DHT22;9663;48.996;8.334;2023-01-01T08:48:20;15.30;57.60
19060;DHT22;9663;48.996;8.334;2023-01-01T08:50:56;16.50;58.20
19060;DHT22;9663;48.996;8.334;2023-01-01T08:53:27;17.10;58.60
19060;DHT22;9663;48.996;8.334;2023-01-01T08:56:14;15.70;57.80
19060;DHT22;9663;48.996;8.334;2023-01-01T08:58:41;16.20;58.10
19060;DHT22;9663;48.996;8.334;2023-01-01T09:01:07;15.60;57.70
19060;DHT22;9663;48.996;8.334;2023-01-01T09:03:34;15.70;57.60
19060;DHT22;9663;48.996;8.334;2023-01-01T09:06:00;15.80;57.60
19060;DHT22;9663;48.996;8.334;2023-01-01T09:08:26;16.10;57.70
19060;DHT22;9663;48.996;8.334;2023-01-01T09:10:52;15.80;57.50
19060;DHT22;9663;48.996;8.334;2023-01-01T09:13:22;16.20;57.70
19060;DHT22;9663;48.996;8.334;2023-01-01T09:15:48;16.20;57.70
19060;DHT22;9663;48.996;8.334;2023-01-01T09:18:14;16.10;57.50
19060;DHT22;9663;48.996;8.334;2023-01-01T09:20:39;16.20;57.60
19060;DHT22;9663;48.996;8.334;2023-01-01T09:23:06;16.10;57.50
19060;DHT22;9663;48.996;8.334;2023-01-01T09:25:33;16.40;57.60
19060;DHT22;9663;48.996;8.334;2023-01-01T09:28:05;16.40;57.50
19060;DHT22;9663;48.996;8.334;2023-01-01T09:30:33;16.70;57.50
19060;DHT22;9663;48.996;8.334;2023-01-01T09:33:00;16.60;57.50
19060;DHT22;9663;48.996;8.334;2023-01-01T09:35:27;16.80;57.50
19060;DHT22;9663;48.996;8.334;2023-01-01T09:37:53;16.90;57.40
19060;DHT22;9663;48.996;8.334;2023-01-01T09:43:31;16.90;57.00
19060;DHT22;9663;48.996;8.334;2023-01-01T09:46:01;17.20;57.00
19060;DHT22;9663;48.996;8.334;2023-01-01T09:48:31;17.50;57.10
19060;DHT22;9663;48.996;8.334;2023-01-01T09:51:02;17.40;57.00
19060;DHT22;9663;48.996;8.334;2023-01-01T09:53:40;18.30;57.20
19060;DHT22;9663;48.996;8.334;2023-01-01T09:56:16;17.40;56.60
19060;DHT22;9663;48.996;8.334;2023-01-01T09:58:46;19.50;57.50
19060;DHT22;9663;48.996;8.334;2023-01-01T10:01:22;17.80;56.70
19060;DHT22;9663;48.996;8.334;2023-01-01T10:06:31;17.90;56.30
19060;DHT22;9663;48.996;8.334;2023-01-01T10:12:14;18.20;55.90
19060;DHT22;9663;48.996;8.334;2023-01-01T10:15:03;18.60;56.00
19060;DHT22;9663;48.996;8.334;2023-01-01T10:17:46;18.50;55.70
19060;DHT22;9663;48.996;8.334;2023-01-01T10:20:35;18.20;55.40
19060;DHT22;9663;48.996;8.334;2023-01-01T10:23:25;18.20;55.30
19060;DHT22;9663;48.996;8.334;2023-01-01T10:26:15;18.70;55.40
19060;DHT22;9663;48.996;8.334;2023-01-01T10:31:33;18.70;55.50
19060;DHT22;9663;48.996;8.334;2023-01-01T10:34:16;18.60;55.40
19060;DHT22;9663;48.996;8.334;2023-01-01T10:36:45;18.80;55.50
19060;DHT22;9663;48.996;8.334;2023-01-01T10:39:16;19.00;55.70
19060;DHT22;9663;48.996;8.334;2023-01-01T10:41:43;18.70;55.30
19060;DHT22;9663;48.996;8.334;2023-01-01T10:44:11;19.70;55.80
19060;DHT22;9663;48.996;8.334;2023-01-01T10:46:44;19.10;55.40
19060;DHT22;9663;48.996;8.334;2023-01-01T10:49:14;19.10;55.20
19060;DHT22;9663;48.996;8.334;2023-01-01T10:51:49;19.70;55.50
19060;DHT22;9663;48.996;8.334;2023-01-01T10:54:37;19.30;54.90
19060;DHT22;9663;48.996;8.334;2023-01-01T10:59:54;19.60;54.20
19060;DHT22;9663;48.996;8.334;2023-01-01T11:02:34;19.40;54.50
19060;DHT22;9663;48.996;8.334;2023-01-01T11:05:19;19.50;54.40
19060;DHT22;9663;48.996;8.334;2023-01-01T11:07:46;19.60;53.70
19060;DHT22;9663;48.996;8.334;2023-01-01T11:10:23;19.90;54.20
19060;DHT22;9663;48.996;8.334;2023-01-01T11:12:53;20.10;53.90
19060;DHT22;9663;48.996;8.334;2023-01-01T11:18:21;19.80;53.50
19060;DHT22;9663;48.996;8.334;2023-01-01T11:20:59;20.30;53.70
19060;DHT22;9663;48.996;8.334;2023-01-01T11:23:34;20.10;53.80
19060;DHT22;9663;48.996;8.334;2023-01-01T11:28:37;20.70;54.20
19060;DHT22;9663;48.996;8.334;2023-01-01T11:31:11;21.30;54.50
19060;DHT22;9663;48.996;8.334;2023-01-01T11:33:48;21.30;53.20
19060;DHT22;9663;48.996;8.334;2023-01-01T11:36:31;21.90;52.70
19060;DHT22;9663;48.996;8.334;2023-01-01T11:39:06;22.00;51.80
19060;DHT22;9663;48.996;8.334;2023-01-01T11:41:53;22.30;51.60
19060;DHT22;9663;48.996;8.334;2023-01-01T11:46:59;22.90;51.30
19060;DHT22;9663;48.996;8.334;2023-01-01T11:49:28;23.10;51.70
19060;DHT22;9663;48.996;8.334;2023-01-01T11:51:55;23.50;50.90
19060;DHT22;9663;48.996;8.334;2023-01-01T11:56:57;23.70;50.10
19060;DHT22;9663;48.996;8.334;2023-01-01T12:00:11;24.00;49.90
19060;DHT22;9663;48.996;8.334;2023-01-01T12:02:36;24.20;49.20
19060;DHT22;9663;48.996;8.334;2023-01-01T12:05:49;24.30;48.80
19060;DHT22;9663;48.996;8.334;2023-01-01T12:08:50;24.60;47.80
19060;DHT22;9663;48.996;8.334;2023-01-01T12:11:24;24.30;48.40
19060;DHT22;9663;48.996;8.334;2023-01-01T12:13:59;24.70;48.30
19060;DHT22;9663;48.996;8.334;2023-01-01T12:16:47;24.70;48.30
19060;DHT22;9663;48.996;8.334;2023-01-01T12:19:25;24.80;48.10
19060;DHT22;9663;48.996;8.334;2023-01-01T12:21:58;24.70;47.40
19060;DHT22;9663;48.996;8.334;2023-01-01T12:24:31;24.80;47.80
19060;DHT22;9663;48.996;8.334;2023-01-01T12:27:22;24.80;47.10
19060;DHT22;9663;48.996;8.334;2023-01-01T12:30:19;25.00;46.00
19060;DHT22;9663;48.996;8.334;2023-01-01T12:44:51;23.30;46.70
19060;DHT22;9663;48.996;8.334;2023-01-01T12:53:33;22.50;47.70
19060;DHT22;9663;48.996;8.334;2023-01-01T12:58:47;22.20;48.30
19060;DHT22;9663;48.996;8.334;2023-01-01T13:01:21;22.40;48.20
19060;DHT22;9663;48.996;8.334;2023-01-01T13:03:57;22.30;48.60
19060;DHT22;9663;48.996;8.334;2023-01-01T13:09:20;21.90;48.20
19060;DHT22;9663;48.996;8.334;2023-01-01T13:14:30;21.80;48.40
19060;DHT22;9663;48.996;8.334;2023-01-01T13:17:02;21.80;49.10
19060;DHT22;9663;48.996;8.334;2023-01-01T13:19:35;21.30;48.90
19060;DHT22;9663;48.996;8.334;2023-01-01T13:33:23;21.40;48.60
19060;DHT22;9663;48.996;8.334;2023-01-01T13:38:54;23.20;49.50
19060;DHT22;9663;48.996;8.334;2023-01-01T13:41:30;21.30;48.40
19060;DHT22;9663;48.996;8.334;2023-01-01T13:55:35;21.20;48.50
19060;DHT22;9663;48.996;8.334;2023-01-01T13:58:30;21.30;48.50
19060;DHT22;9663;48.996;8.334;2023-01-01T14:01:41;21.10;49.00
19060;DHT22;9663;48.996;8.334;2023-01-01T14:10:15;21.10;49.10
19060;DHT22;9663;48.996;8.334;2023-01-01T14:12:51;20.80;49.50
19060;DHT22;9663;48.996;8.334;2023-01-01T14:17:55;20.70;49.00
19060;DHT22;9663;48.996;8.334;2023-01-01T14:20:30;20.80;49.30
19060;DHT22;9663;48.996;8.334;2023-01-01T14:23:06;20.60;48.80
19060;DHT22;9663;48.996;8.334;2023-01-01T14:25:35;20.50;49.10
19060;DHT22;9663;48.996;8.334;2023-01-01T14:28:02;20.60;49.40
19060;DHT22;9663;48.996;8.334;2023-01-01T14:30:30;20.40;49.30
19060;DHT22;9663;48.996;8.334;2023-01-01T14:32:59;20.70;49.40
19060;DHT22;9663;48.996;8.334;2023-01-01T14:35:27;20.20;49.30
19060;DHT22;9663;48.996;8.334;2023-01-01T14:37:54;20.30;49.40
19060;DHT22;9663;48.996;8.334;2023-01-01T14:40:25;20.30;49.50
19060;DHT22;9663;48.996;8.334;2023-01-01T14:43:04;20.30;49.40
19060;DHT22;9663;48.996;8.334;2023-01-01T14:45:35;20.40;49.50
19060;DHT22;9663;48.996;8.334;2023-01-01T14:48:04;20.30;49.60
19060;DHT22;9663;48.996;8.334;2023-01-01T14:50:32;20.10;49.50
19060;DHT22;9663;48.996;8.334;2023-01-01T14:53:04;20.30;49.60
19060;DHT22;9663;48.996;8.334;2023-01-01T14:55:41;20.60;49.70
19060;DHT22;9663;48.996;8.334;2023-01-01T14:58:26;20.50;49.70
19060;DHT22;9663;48.996;8.334;2023-01-01T15:00:59;20.00;49.40
19060;DHT22;9663;48.996;8.334;2023-01-01T15:03:56;19.90;49.60
19060;DHT22;9663;48.996;8.334;2023-01-01T15:06:27;19.80;49.40
19060;DHT22;9663;48.996;8.334;2023-01-01T15:08:53;19.80;49.60
19060;DHT22;9663;48.996;8.334;2023-01-01T15:11:20;19.90;49.80
19060;DHT22;9663;48.996;8.334;2023-01-01T15:17:04;19.80;49.70
19060;DHT22;9663;48.996;8.334;2023-01-01T15:19:33;19.50;49.90
19060;DHT22;9663;48.996;8.334;2023-01-01T15:22:08;19.50;50.00
19060;DHT22;9663;48.996;8.334;2023-01-01T15:24:50;19.40;50.00
19060;DHT22;9663;48.996;8.334;2023-01-01T15:27:29;19.40;50.10
19060;DHT22;9663;48.996;8.334;2023-01-01T15:30:00;20.20;50.40
19060;DHT22;9663;48.996;8.334;2023-01-01T15:32:32;19.10;50.10
19060;DHT22;9663;48.996;8.334;2023-01-01T15:35:17;19.60;50.40
19060;DHT22;9663;48.996;8.334;2023-01-01T15:37:48;19.10;50.20
19060;DHT22;9663;48.996;8.334;2023-01-01T15:47:52;18.80;50.30
19060;DHT22;9663;48.996;8.334;2023-01-01T15:50:25;18.50;50.10
19060;DHT22;9663;48.996;8.334;2023-01-01T15:53:00;18.50;50.20
19060;DHT22;9663;48.996;8.334;2023-01-01T15:55:34;19.30;50.70
19060;DHT22;9663;48.996;8.334;2023-01-01T15:58:06;18.50;50.50
19060;DHT22;9663;48.996;8.334;2023-01-01T16:00:34;18.50;50.70
19060;DHT22;9663;48.996;8.334;2023-01-01T16:03:18;18.20;50.50
19060;DHT22;9663;48.996;8.334;2023-01-01T16:05:52;18.00;50.60
19060;DHT22;9663;48.996;8.334;2023-01-01T16:08:19;18.00;50.60
19060;DHT22;9663;48.996;8.334;2023-01-01T16:10:47;17.90;50.90
19060;DHT22;9663;48.996;8.334;2023-01-01T16:13:14;16.90;50.40
19060;DHT22;9663;48.996;8.334;2023-01-01T16:15:58;17.60;50.90
19060;DHT22;9663;48.996;8.334;2023-01-01T16:18:36;17.60;51.00
19060;DHT22;9663;48.996;8.334;2023-01-01T16:21:04;17.60;51.10
19060;DHT22;9663;48.996;8.334;2023-01-01T16:23:30;17.60;51.30
19060;DHT22;9663;48.996;8.334;2023-01-01T16:25:56;17.50;51.30
19060;DHT22;9663;48.996;8.334;2023-01-01T16:28:22;18.00;51.60
19060;DHT22;9663;48.996;8.334;2023-01-01T16:30:48;17.10;51.30
19060;DHT22;9663;48.996;8.334;2023-01-01T16:33:16;17.10;51.40
19060;DHT22;9663;48.996;8.334;2023-01-01T16:35:47;17.90;51.90
19060;DHT22;9663;48.996;8.334;2023-01-01T16:38:13;17.10;51.60
19060;DHT22;9663;48.996;8.334;2023-01-01T16:40:39;16.90;51.50
19060;DHT22;9663;48.996;8.334;2023-01-01T16:43:08;16.70;51.80
19060;DHT22;9663;48.996;8.334;2023-01-01T16:45:40;16.70;51.90
19060;DHT22;9663;48.996;8.334;2023-01-01T16:48:05;16.40;51.90
19060;DHT22;9663;48.996;8.334;2023-01-01T16:50:31;16.30;51.90
19060;DHT22;9663;48.996;8.334;2023-01-01T16:52:57;16.30;52.10
19060;DHT22;9663;48.996;8.334;2023-01-01T16:55:23;16.20;52.20
19060;DHT22;9663;48.996;8.334;2023-01-01T16:57:48;18.00;53.20
19060;DHT22;9663;48.996;8.334;2023-01-01T17:00:14;16.90;52.80
19060;DHT22;9663;48.996;8.334;2023-01-01T17:02:40;16.10;52.50
19060;DHT22;9663;48.996;8.334;2023-01-01T17:05:06;16.10;52.60
19060;DHT22;9663;48.996;8.334;2023-01-01T17:07:35;15.90;52.60
19060;DHT22;9663;48.996;8.334;2023-01-01T17:10:01;15.80;52.80
19060;DHT22;9663;48.996;8.334;2023-01-01T17:12:27;15.70;52.70
19060;DHT22;9663;48.996;8.334;2023-01-01T17:14:52;15.70;52.70
19060;DHT22;9663;48.996;8.334;2023-01-01T17:17:18;15.90;53.00
19060;DHT22;9663;48.996;8.334;2023-01-01T17:19:44;15.80;53.30
19060;DHT22;9663;48.996;8.334;2023-01-01T17:22:10;15.40;52.90
19060;DHT22;9663;48.996;8.334;2023-01-01T17:24:36;15.60;53.10
19060;DHT22;9663;48.996;8.334;2023-01-01T17:27:02;15.50;53.30
19060;DHT22;9663;48.996;8.334;2023-01-01T17:29:27;15.40;53.20
19060;DHT22;9663;48.996;8.334;2023-01-01T17:31:53;15.30;53.30
19060;DHT22;9663;48.996;8.334;2023-01-01T17:34:19;15.40;53.30
19060;DHT22;9663;48.996;8.334;2023-01-01T17:36:45;15.40;53.40
19060;DHT22;9663;48.996;8.334;2023-01-01T17:39:12;15.20;53.40
19060;DHT22;9663;48.996;8.334;2023-01-01T17:41:40;15.30;53.50
19060;DHT22;9663;48.996;8.334;2023-01-01T17:44:07;15.00;53.50
19060;DHT22;9663;48.996;8.334;2023-01-01T17:46:33;15.10;53.60
19060;DHT22;9663;48.996;8.334;2023-01-01T17:48:59;15.10;53.70
19060;DHT22;9663;48.996;8.334;2023-01-01T17:51:25;15.30;53.80
19060;DHT22;9663;48.996;8.334;2023-01-01T17:53:53;15.20;53.80
19060;DHT22;9663;48.996;8.334;2023-01-01T17:56:20;15.80;54.10
19060;DHT22;9663;48.996;8.334;2023-01-01T17:58:48;15.00;53.70
19060;DHT22;9663;48.996;8.334;2023-01-01T18:03:51;15.00;53.90
19060;DHT22;9663;48.996;8.334;2023-01-01T18:06:18;15.60;54.20
19060;DHT22;9663;48.996;8.334;2023-01-01T18:08:45;15.00;54.00
19060;DHT22;9663;48.996;8.334;2023-01-01T18:11:11;16.20;54.60
19060;DHT22;9663;48.996;8.334;2023-01-01T18:13:37;14.70;54.00